Umgeni — 9V9273 — position and weather

sailwx.info

Track history (hours):
 
Tides and Currents Weather Stations Pressure Air Temp Water Temp Dewpoint Dewpoint Depression Visibility Wind Speed Wind Dir Waves Ship Positions

Umgeni

Last reported at 2017-Sep-19 00:32 UTC. Time now 2017-Sep-23 07:43 UTC.
Position N 43°41' W 004°60'.

Length 144 m; draft 6.8 m.

Type: Tanker. MMSI: 566043000.

Date/timePositionNaut miles runAvg speedWind from/ knotsBaromVisibWave heightAir tempDewpointWater temp
2017-Sep-19 00:32N 43°41' W 004°60'113.5
2017-Sep-19 00:27N 43°42' W 005°01'613.3
2017-Sep-19 00:00N 43°43' W 005°09'713.1
2017-Sep-18 23:30N 43°44' W 005°18'713.2
2017-Sep-18 23:00N 43°45' W 005°27'713.3
2017-Sep-18 22:30N 43°46' W 005°36'913.4
2017-Sep-18 21:50N 43°47' W 005°49'319 9.3
2017-Sep-17 11:36N 39°25' W 009°52'312.1
2017-Sep-17 11:20N 39°22' W 009°52'411.7
2017-Sep-17 11:00N 39°18' W 009°51'612.1
2017-Sep-17 10:30N 39°12' W 009°51'612.0
2017-Sep-17 10:00N 39°06' W 009°52'611.7
2017-Sep-17 09:30N 38°60' W 009°52'611.9
2017-Sep-17 09:00N 38°54' W 009°52'611.9
2017-Sep-17 08:30N 38°48' W 009°52'611.9
2017-Sep-17 08:00N 38°42' W 009°52'611.8
2017-Sep-17 07:30N 38°36' W 009°50'611.4
2017-Sep-17 07:00N 38°31' W 009°48'611.2
2017-Sep-17 06:30N 38°25' W 009°47'611.4
2017-Sep-17 06:00N 38°20' W 009°45'611.7
2017-Sep-17 05:29N 38°14' W 009°43'611.7
2017-Sep-17 04:57N 38°08' W 009°41'511.9
2017-Sep-17 04:30N 38°03' W 009°40'7110.7
2017-Sep-16 21:49N 36°53' W 009°20'410.1
2017-Sep-16 21:23N 36°50' W 009°16'710.5
2017-Sep-16 20:40N 36°44' W 009°10'211.2
2017-Sep-16 20:29N 36°44' W 009°08'1010.9
2017-Sep-16 19:36N 36°41' W 008°56'110.9
2017-Sep-16 19:30N 36°40' W 008°55'510.8
2017-Sep-16 19:00N 36°39' W 008°48'16311.4
2017-Sep-16 04:43N 35°59' W 005°32'2 7.5
2017-Sep-16 04:30N 35°59' W 005°30'4 7.3
2017-Sep-16 04:00N 35°60' W 005°26'4 7.6
2017-Sep-16 03:30N 36°01' W 005°21'4 8.9
2017-Sep-16 03:00N 36°02' W 005°16'22310.0
2017-Sep-15 04:46N 37°19' W 000°55'312.5
2017-Sep-15 04:29N 37°21' W 000°52'612.4
2017-Sep-15 04:00N 37°25' W 000°46'1012.1
2017-Sep-15 03:13N 37°32' W 000°37'312.1
2017-Sep-15 03:00N 37°33' W 000°35'611.9
2017-Sep-15 02:30N 37°38' W 000°30'612.1
2017-Sep-15 02:00N 37°43' W 000°26'2112.3
2017-Sep-15 00:16N 38°01' W 000°11'3412.3
2017-Sep-14 21:31N 38°29' E 000°12'112.1
2017-Sep-14 21:23N 38°31' E 000°13'512.0
2017-Sep-14 21:00N 38°34' E 000°16'2811.8
2017-Sep-14 18:36N 39°00' E 000°31'111.5
2017-Sep-14 18:30N 39°01' E 000°32'611.5
2017-Sep-14 18:00N 39°07' E 000°34'711.4
2017-Sep-14 17:21N 39°14' E 000°37'3012.3
2017-Sep-14 14:57N 39°42' E 000°50'612.4
2017-Sep-14 14:30N 39°47' E 000°52'612.4
2017-Sep-14 14:00N 39°53' E 000°54'612.4
2017-Sep-14 13:30N 39°59' E 000°56'612.3
2017-Sep-14 13:00N 40°05' E 000°57'712.3
2017-Sep-14 12:25N 40°12' E 000°59'512.2
2017-Sep-14 12:00N 40°17' E 001°00'612.1
2017-Sep-14 11:29N 40°23' E 001°02'612.1
2017-Sep-14 11:00N 40°29' E 001°04'1312.3
2017-Sep-14 09:55N 40°42' E 001°07'  
2017-Sep-10 12:50N 40°56' E 001°41'512.0
2017-Sep-10 12:24N 40°54' E 001°48'512.1
2017-Sep-10 12:00N 40°52' E 001°54'612.1
2017-Sep-10 11:30N 40°50' E 002°01'612.3
2017-Sep-10 11:00N 40°48' E 002°09'612.2
2017-Sep-10 10:30N 40°46' E 002°16'612.0
2017-Sep-10 10:00N 40°44' E 002°24'612.0
2017-Sep-10 09:30N 40°42' E 002°31'612.1
2017-Sep-10 09:00N 40°40' E 002°39'611.7
2017-Sep-10 08:30N 40°39' E 002°46'611.0
2017-Sep-10 08:00N 40°37' E 002°53'510.7
2017-Sep-10 07:30N 40°35' E 002°60'510.7
2017-Sep-10 07:00N 40°33' E 003°06'510.5
2017-Sep-10 06:30N 40°32' E 003°13'5 9.6
2017-Sep-10 06:00N 40°29' E 003°18'  
Track history (hours):
 
Tides and Currents Weather Stations Pressure Air Temp Water Temp Dewpoint Dewpoint Depression Visibility Wind Speed Wind Dir Waves Ship Positions

Umgeni

Last reported at 2017-Sep-19 00:32 UTC. Time now 2017-Sep-23 07:43 UTC.
Position N 43°41' W 004°60'.

Length 144 m; draft 6.8 m.

Type: Tanker. MMSI: 566043000.

Date/timePositionNaut miles runAvg speedWind from/ knotsBaromVisibWave heightAir tempDewpointWater temp
2017-Sep-19 00:32N 43°41' W 004°60'113.5
2017-Sep-19 00:27N 43°42' W 005°01'613.3
2017-Sep-19 00:00N 43°43' W 005°09'713.1
2017-Sep-18 23:30N 43°44' W 005°18'713.2
2017-Sep-18 23:00N 43°45' W 005°27'713.3
2017-Sep-18 22:30N 43°46' W 005°36'913.4
2017-Sep-18 21:50N 43°47' W 005°49'319 9.3
2017-Sep-17 11:36N 39°25' W 009°52'312.1
2017-Sep-17 11:20N 39°22' W 009°52'411.7
2017-Sep-17 11:00N 39°18' W 009°51'612.1
2017-Sep-17 10:30N 39°12' W 009°51'612.0
2017-Sep-17 10:00N 39°06' W 009°52'611.7
2017-Sep-17 09:30N 38°60' W 009°52'611.9
2017-Sep-17 09:00N 38°54' W 009°52'611.9
2017-Sep-17 08:30N 38°48' W 009°52'611.9
2017-Sep-17 08:00N 38°42' W 009°52'611.8
2017-Sep-17 07:30N 38°36' W 009°50'611.4
2017-Sep-17 07:00N 38°31' W 009°48'611.2
2017-Sep-17 06:30N 38°25' W 009°47'611.4
2017-Sep-17 06:00N 38°20' W 009°45'611.7
2017-Sep-17 05:29N 38°14' W 009°43'611.7
2017-Sep-17 04:57N 38°08' W 009°41'511.9
2017-Sep-17 04:30N 38°03' W 009°40'7110.7
2017-Sep-16 21:49N 36°53' W 009°20'410.1
2017-Sep-16 21:23N 36°50' W 009°16'710.5
2017-Sep-16 20:40N 36°44' W 009°10'211.2
2017-Sep-16 20:29N 36°44' W 009°08'1010.9
2017-Sep-16 19:36N 36°41' W 008°56'110.9
2017-Sep-16 19:30N 36°40' W 008°55'510.8
2017-Sep-16 19:00N 36°39' W 008°48'16311.4
2017-Sep-16 04:43N 35°59' W 005°32'2 7.5
2017-Sep-16 04:30N 35°59' W 005°30'4 7.3
2017-Sep-16 04:00N 35°60' W 005°26'4 7.6
2017-Sep-16 03:30N 36°01' W 005°21'4 8.9
2017-Sep-16 03:00N 36°02' W 005°16'22310.0
2017-Sep-15 04:46N 37°19' W 000°55'312.5
2017-Sep-15 04:29N 37°21' W 000°52'612.4
2017-Sep-15 04:00N 37°25' W 000°46'1012.1
2017-Sep-15 03:13N 37°32' W 000°37'312.1
2017-Sep-15 03:00N 37°33' W 000°35'611.9
2017-Sep-15 02:30N 37°38' W 000°30'612.1
2017-Sep-15 02:00N 37°43' W 000°26'2112.3
2017-Sep-15 00:16N 38°01' W 000°11'3412.3
2017-Sep-14 21:31N 38°29' E 000°12'112.1
2017-Sep-14 21:23N 38°31' E 000°13'512.0
2017-Sep-14 21:00N 38°34' E 000°16'2811.8
2017-Sep-14 18:36N 39°00' E 000°31'111.5
2017-Sep-14 18:30N 39°01' E 000°32'611.5
2017-Sep-14 18:00N 39°07' E 000°34'711.4
2017-Sep-14 17:21N 39°14' E 000°37'3012.3
2017-Sep-14 14:57N 39°42' E 000°50'612.4
2017-Sep-14 14:30N 39°47' E 000°52'612.4
2017-Sep-14 14:00N 39°53' E 000°54'612.4
2017-Sep-14 13:30N 39°59' E 000°56'612.3
2017-Sep-14 13:00N 40°05' E 000°57'712.3
2017-Sep-14 12:25N 40°12' E 000°59'512.2
2017-Sep-14 12:00N 40°17' E 001°00'612.1
2017-Sep-14 11:29N 40°23' E 001°02'612.1
2017-Sep-14 11:00N 40°29' E 001°04'1312.3
2017-Sep-14 09:55N 40°42' E 001°07'  
2017-Sep-10 12:50N 40°56' E 001°41'512.0
2017-Sep-10 12:24N 40°54' E 001°48'512.1
2017-Sep-10 12:00N 40°52' E 001°54'612.1
2017-Sep-10 11:30N 40°50' E 002°01'612.3
2017-Sep-10 11:00N 40°48' E 002°09'612.2
2017-Sep-10 10:30N 40°46' E 002°16'612.0
2017-Sep-10 10:00N 40°44' E 002°24'612.0
2017-Sep-10 09:30N 40°42' E 002°31'612.1
2017-Sep-10 09:00N 40°40' E 002°39'611.7
2017-Sep-10 08:30N 40°39' E 002°46'611.0
2017-Sep-10 08:00N 40°37' E 002°53'510.7
2017-Sep-10 07:30N 40°35' E 002°60'510.7
2017-Sep-10 07:00N 40°33' E 003°06'510.5
2017-Sep-10 06:30N 40°32' E 003°13'5 9.6
2017-Sep-10 06:00N 40°29' E 003°18'  

Dump ship's entire track history